Currently 72°F in Simi Valley, California, USA
72°F
72°F / 72°F
1 mph NE
0.00"
Wednesday, August 17, 2022 12:18 AM PDT

Simi Valley, California Climate Summary
Typical February Day

Normal High:    68.7°F (20.4°C)
Normal Low:    47.0°F (8.3°C)
Average:    56.9°F (13.9°C)

Hour    Temperature    Wind Speed    Humidity
12:00 AM    52°F (11°C)    3 mph    62%
1:00 AM    51°F (11°C)    3 mph    62%
2:00 AM    51°F (11°C)    3 mph    62%
3:00 AM    50°F (10°C)    3 mph    62%
4:00 AM    50°F (10°C)    3 mph    62%
5:00 AM    50°F (10°C)    3 mph    62%
6:00 AM    50°F (10°C)    3 mph    63%
7:00 AM    50°F (10°C)    3 mph    63%
8:00 AM    52°F (11°C)    4 mph    61%
9:00 AM    56°F (14°C)    4 mph    57%
10:00 AM    61°F (16°C)    4 mph    50%
11:00 AM    64°F (18°C)    5 mph    45%
12:00 PM    66°F (19°C)    5 mph    41%
1:00 PM    67°F (20°C)    5 mph    40%
2:00 PM    67°F (20°C)    6 mph    41%
3:00 PM    67°F (19°C)    6 mph    43%
4:00 PM    65°F (18°C)    5 mph    45%
5:00 PM    63°F (17°C)    4 mph    49%
6:00 PM    60°F (16°C)    3 mph    54%
7:00 PM    57°F (14°C)    3 mph    57%
8:00 PM    55°F (13°C)    2 mph    59%
9:00 PM    54°F (12°C)    3 mph    61%
10:00 PM    53°F (12°C)    3 mph    61%
11:00 PM    52°F (11°C)    3 mph    62%
 

The Simi Valley, California weather pages are a service of WeatherCurrents.
Copyright ©2022  WeatherCurrents. All rights reserved. - Submit questions and comments - Privacy Policy